Nearby METAR (Airport) Reports

 

KPRN - Greenville, Alabama, USA
Distance from station: WNW 17mi, 28km
Updated: Thu, 04-Mar-2021 2:58pm CST
Clear
Clear
 Wind from varies
Wind: varies 6 mph , 9 km/h
Temperature: 73°F , 23°C
Dew Point: 27°F , -3°C
Humidity: 17%
Barometer: 30.04 inHg , 1017.3 hPa
Clouds: Clear
Visibility: 10 miles , 16 km
2021/03/04 20:58 KPRN 042058Z AUTO VRB05KT 10SM CLR 23/M03 A3004 RMK AO2 SLP119 T02281028 56023
KTOI - Troy, Alabama, USA
Distance from station: ENE 21mi, 34km
Updated: Thu, 04-Mar-2021 3:53pm CST
Clear
Clear
 Wind from NNW
Wind: NNW 8 mph , 13 km/h
Temperature: 75°F , 24°C
Dew Point: 30°F , -1°C
Humidity: 19%
Barometer: 30.03 inHg , 1016.9 hPa
Clouds: Clear
Visibility: 10 miles , 16 km
2021/03/04 21:53 KTOI 042153Z AUTO 33007KT 10SM CLR 24/M01 A3003 RMK AO2 SLP167 T02391006
K79J - Andalusia/Opp Ar, Alabama, USA
Distance from station: S 29mi, 47km
Updated: Thu, 04-Mar-2021 3:56pm CST
Clear
Clear
 Wind from N
Wind: N 8 mph , 13 km/h
Temperature: 77°F , 25°C
Dew Point: 32°F , 0°C
Humidity: 19%
Barometer: 30.02 inHg , 1016.6 hPa
Clouds: Clear
Visibility: 10 miles , 16 km
2021/03/04 21:56 K79J 042156Z AUTO 01007KT 10SM CLR 25/00 A3002 RMK AO2 SLP161 T02500000
 
KMGM - Montgomery, Alabama, USA
Distance from station: N 39mi, 63km
Updated: Thu, 04-Mar-2021 3:53pm CST
Clear
Clear
 Wind from NW
Wind: NW 9 mph , 15 km/h
Temperature: 73°F , 23°C
Dew Point: 30°F , -1°C
Humidity: 20%
Barometer: 30.03 inHg , 1016.9 hPa
Clouds: Clear
Visibility: 10 miles , 16 km
2021/03/04 21:53 KMGM 042153Z 32008KT 10SM CLR 23/M01 A3003 RMK AO2 SLP168 T02331006
KMXF - Maxwell Afb/Mgm, Alabama, USA
Distance from station: N 44mi, 70km
Updated: Thu, 04-Mar-2021 3:56pm CST
Clear
Clear
 Wind from N
Wind: N 6 mph , 9 km/h
Temperature: 73°F , 23°C
Dew Point: 25°F , -4°C
Humidity: 16%
Barometer: 30.01 inHg , 1016.3 hPa
Clouds: Clear
Visibility: 10 miles , 16 km
2021/03/04 21:56 KMXF 042156Z AUTO 35005KT 10SM CLR 23/M04 A3001 RMK AO2 SLP165 T02271036
KLOR - Lowe Ahp/Ft. Ruc, Alabama, USA
Distance from station: SE 44mi, 71km
Updated: Thu, 04-Mar-2021 3:58pm CST
Clear
Clear
 Wind from N
Wind: N 7 mph , 11 km/h
Temperature: 73°F , 23°C
Dew Point: 32°F , 0°C
Humidity: 22%
Barometer: 30.01 inHg , 1016.3 hPa
Clouds: Clear
Visibility: 10 miles , 16 km
2021/03/04 21:58 KLOR 042158Z AUTO 36006KT 10SM CLR 23/00 A3001 RMK AO2 SLP145 T02260004
 
KGZH - Evergreen, Alabama, USA
Distance from station: WSW 46mi, 75km
Updated: Thu, 04-Mar-2021 3:53pm CST
Clear
Clear
 Wind from NNE
Wind: NNE 7 mph , 11 km/h
Temperature: 75°F , 24°C
Dew Point: 34°F , 1°C
Humidity: 22%
Barometer: 30.03 inHg , 1016.9 hPa
Clouds: Clear
Visibility: 10 miles , 16 km
2021/03/04 21:53 KGZH 042153Z AUTO 03006KT 10SM CLR 24/01 A3003 RMK AO2 SLP168 T02390011
K0J4 - Florala Muni, Alabama, USA
Distance from station: S 47mi, 76km
Updated: Thu, 04-Mar-2021 3:58pm CST
Clear
Clear
 Wind from N
Wind: N 5 mph , 7 km/h
Temperature: 73°F , 23°C
Dew Point: 30°F , -1°C
Humidity: 20%
Barometer: 30.04 inHg , 1017.3 hPa
Clouds: Clear
Visibility: 10 miles , 16 km
2021/03/04 21:58 K0J4 042158Z AUTO 36004KT 10SM CLR 23/M01 A3004 RMK AO2 SLP168 T02281011 $
KOZR - Ozark/Cairns Aaf, Alabama, USA
Distance from station: SE 49mi, 78km
Updated: Thu, 04-Mar-2021 3:56pm CST
Clear
Clear
 Wind from NNW
Wind: NNW 10 mph , 17 km/h
Temperature: 73°F , 23°C
Dew Point: 32°F , 0°C
Humidity: 22%
Barometer: 30.01 inHg , 1016.3 hPa
Clouds: Clear
Visibility: 10 miles , 16 km
2021/03/04 21:56 KOZR 042156Z AUTO 34009KT 10SM CLR 23/00 A3001 RMK AO2 SLP164 T02320003 $
 
KHEY - Ft Rucker/Hanche, Alabama, USA
Distance from station: ESE 49mi, 79km
Updated: Thu, 04-Mar-2021 3:58pm CST
Clear
Clear
 Wind from NNW
Wind: NNW 5 mph , 7 km/h
Temperature: 73°F , 23°C
Dew Point: 36°F , 2°C
Humidity: 25%
Barometer: 30.00 inHg , 1015.9 hPa
Clouds: Clear
Visibility: 9 miles , 14 km
2021/03/04 21:58 KHEY 042158Z AUTO 33004KT 9SM CLR 23/02 A3000 RMK AO2 SLP161 T02280021
KDHN - Dothan, Alabama, USA
Distance from station: ESE 61mi, 97km
Updated: Thu, 04-Mar-2021 3:53pm CST
Clear
Clear
 Wind from NNW
Wind: NNW 12 mph , 19 km/h
Temperature: 72°F , 22°C
Dew Point: 37°F , 3°C
Humidity: 29%
Barometer: 30.04 inHg , 1017.3 hPa
Clouds: Clear
Visibility: 10 miles , 16 km
2021/03/04 21:53 KDHN 042153Z 34010KT 10SM CLR 22/03 A3004 RMK AO1 SLP170 T02220033
KCEW - Crestview, Florida, USA
Distance from station: S 66mi, 107km
Updated: Thu, 04-Mar-2021 3:53pm CST
Clear
Clear
 Wind from N
Wind: N 7 mph , 11 km/h
Temperature: 73°F , 23°C
Dew Point: 36°F , 2°C
Humidity: 25%
Barometer: 30.03 inHg , 1016.9 hPa
Clouds: Clear
Visibility: 10 miles , 16 km
2021/03/04 21:53 KCEW 042153Z AUTO 36006KT 10SM CLR 23/02 A3003 RMK AO2 SLP167 T02330022 $
 
KEUF - Eufaula, Alabama, USA
Distance from station: ENE 73mi, 118km
Updated: Thu, 04-Mar-2021 3:58pm CST
Clear
Clear
 Wind from NNW
Wind: NNW 3 mph , 6 km/h
Temperature: 75°F , 24°C
Dew Point: 30°F , -1°C
Humidity: 19%
Barometer: 30.01 inHg , 1016.3 hPa
Clouds: Clear
Visibility: 10 miles , 16 km
2021/03/04 21:58 KEUF 042158Z AUTO 33003KT 10SM CLR 24/M01 A3001 RMK AO2 SLP159 I1000 T02391006
KJKA - Gulf Shores, Alabama, USA
Distance from station: SSW 132mi, 212km
Updated: Thu, 04-Mar-2021 3:55pm CST
Clear
Clear
 Wind from WSW
Wind: WSW 10 mph , 17 km/h
Temperature: 70°F , 21°C
Dew Point: 39°F , 4°C
Humidity: 33%
Barometer: 30.05 inHg , 1017.6 hPa
Clouds: Clear
Visibility: 10 miles , 16 km
2021/03/04 21:55 KJKA 042155Z AUTO 24009KT 10SM CLR 21/04 A3005 RMK AO2 T02060039
KLSF - Ft Benning/Colum, Georgia, USA
Distance from station: SNE 89mi, 143km
Updated: Thu, 04-Mar-2021 3:56pm CST
Clear
Clear
 Wind from NW
Wind: NW 8 mph , 13 km/h
Temperature: 73°F , 23°C
Dew Point: 34°F , 1°C
Humidity: 23%
Barometer: 29.99 inHg , 1015.6 hPa
Clouds: Clear
Visibility: 10 miles , 16 km
2021/03/04 21:56 KLSF 042156Z AUTO 31007KT 10SM CLR 23/01 A2999 RMK AO2 SLP161 T02300013 $
 
KMOB - Mobile/Bates, Alabama, USA
Distance from station: SW 125mi, 202km
Updated: Thu, 04-Mar-2021 3:56pm CST
Few Clouds
Few Clouds
 Wind from varies
Wind: varies 3 mph , 6 km/h
Temperature: 70°F , 21°C
Dew Point: 32°F , 0°C
Humidity: 25%
Barometer: 30.06 inHg , 1017.9 hPa
Clouds: Few Clouds
Visibility: 10 miles , 16 km
Cloud details: Few Clouds 1500 ft
2021/03/04 21:56 KMOB 042156Z VRB03KT 10SM FEW015 21/00 A3006 RMK AO2 SLP177 FU FEW015 T02110000
KNMM - Meridian Nas, Mississippi, USA
Distance from station: WNW 151mi, 243km
Updated: Thu, 04-Mar-2021 3:56pm CST
Clear
Clear
 Wind from NE
Wind: NE 8 mph , 13 km/h
Temperature: 72°F , 22°C
Dew Point: 36°F , 2°C
Humidity: 27%
Barometer: 30.07 inHg , 1018.3 hPa
Clouds: Clear
Visibility: 10 miles , 16 km
2021/03/04 21:56 KNMM 042156Z 05007KT 10SM CLR 22/02 A3007 RMK AO2 SLP193 T02170017
KQHY - Hurlbert (Ft Walton Bch), Florida, USA
Distance from station: S 94mi, 151km
Updated: Wed, 03-Mar-2021 11:56pm CST
NOT Current
Clear
Clear
 Wind from calm
Wind: Calm
Temperature: 50°F , 10°C
Dew Point: 46°F , 8°C
Humidity: 88%
Barometer: 30.10 inHg , 1019.3 hPa
Clouds: Clear
Visibility: 10 miles , 16 km
2021/03/04 05:56 KQHY 040556Z AUTO 00000KT 10SM CLR 10/08 A3010 RMK AO2 SLPNO T01030082 10147 20100 401740100 58003
 
KTCL - Tuscaloosa, Alabama, USA
Distance from station: NNW 129mi, 207km
Updated: Thu, 04-Mar-2021 2:53pm CST
Clear
Clear
 Wind from varies
Wind: varies 6 mph , 9 km/h
Temperature: 72°F , 22°C
Dew Point: 32°F , 0°C
Humidity: 23%
Barometer: 30.07 inHg , 1018.3 hPa
Clouds: Clear
Visibility: 10 miles , 16 km
2021/03/04 20:53 KTCL 042053Z VRB05KT 10SM CLR 22/00 A3007 RMK AO2 SLP180 T02220000 56028
KECP - Panama City, Florida, USA
Distance from station: SSE 122mi, 196km
Updated: Thu, 04-Mar-2021 3:53pm CST
Clear
Clear
 Wind from N
Wind: N 5 mph , 7 km/h
Temperature: 72°F , 22°C
Dew Point: 37°F , 3°C
Humidity: 29%
Barometer: 30.01 inHg , 1016.3 hPa
Clouds: Clear
Visibility: 10 miles , 16 km
2021/03/04 21:53 KECP 042153Z 01004KT 10SM CLR 22/03 A3001 RMK AO2 SLP172 T02220033
KCBM - Columbus Afb, Mississippi, USA
Distance from station: NW 175mi, 282km
Updated: Thu, 04-Mar-2021 2:56pm CST
Clear
Clear
 Wind from calm
Wind: Calm
Temperature: 70°F , 21°C
Dew Point: 36°F , 2°C
Humidity: 29%
Barometer: 30.07 inHg , 1018.3 hPa
Clouds: Clear
Visibility: 10 miles , 16 km
2021/03/04 20:56 KCBM 042056Z AUTO 00000KT 10SM CLR 21/02 A3007 RMK AO2 SLPNO T02120020 $
 
KBHM - Birmingham, Alabama, USA
Distance from station: N 132mi, 212km
Updated: Thu, 04-Mar-2021 3:53pm CST
Clear
Clear
 Wind from N
Wind: N 12 mph , 19 km/h
Temperature: 72°F , 22°C
Dew Point: 34°F , 1°C
Humidity: 25%
Barometer: 30.07 inHg , 1018.3 hPa
Clouds: Clear
Visibility: 10 miles , 16 km
2021/03/04 21:53 KBHM 042153Z 36010KT 10SM CLR 22/01 A3007 RMK AO2 SLP181 T02170006
KAAF - Apalachicola, Florida, USA
Distance from station: SSE 156mi, 250km
Updated: Thu, 04-Mar-2021 3:53pm CST
Clear
Clear
 Wind from WNW
Wind: WNW 9 mph , 15 km/h
Temperature: 72°F , 22°C
Dew Point: 43°F , 6°C
Humidity: 36%
Barometer: 30.00 inHg , 1015.9 hPa
Clouds: Clear
Visibility: 10 miles , 16 km
2021/03/04 21:53 KAAF 042153Z AUTO 29008KT 10SM CLR 22/06 A3000 RMK AO2 SLP158 T02170056
KATL - Atlanta, Georgia, USA
Distance from station: NE 177mi, 287km
Updated: Thu, 04-Mar-2021 3:52pm CST
Clear
Clear
 Wind from NNW
Wind: NNW 16 mph , 26 km/h
Temperature: 70°F , 21°C
Dew Point: 25°F , -4°C
Humidity: 18%
Barometer: 30.00 inHg , 1015.9 hPa
Clouds: Clear
Visibility: 10 miles , 16 km
2021/03/04 21:52 KATL 042152Z 34014KT 10SM CLR 21/M04 A3000 RMK AO2 PK WND 32026/2055 SLP159 T02061039
 
KGPT - Gulfport, Mississippi, USA
Distance from station: SW 192mi, 309km
Updated: Thu, 04-Mar-2021 3:53pm CST
Clear
Clear
 Wind from S
Wind: S 8 mph , 13 km/h
Temperature: 64°F , 18°C
Dew Point: 43°F , 6°C
Humidity: 46%
Barometer: 30.07 inHg , 1018.3 hPa
Clouds: Clear
Visibility: 10 miles , 16 km
2021/03/04 21:53 KGPT 042153Z 19007KT 10SM CLR 18/06 A3007 RMK AO2 SLP181 T01830056
KNEW - New Orleans/Lake, Louisiana, USA
Distance from station: SW 255mi, 410km
Updated: Thu, 04-Mar-2021 3:53pm CST
Clear
Clear
 Wind from WNW
Wind: WNW 8 mph , 13 km/h
Temperature: 64°F , 18°C
Dew Point: 46°F , 8°C
Humidity: 52%
Barometer: 30.10 inHg , 1019.3 hPa
Clouds: Clear
Visibility: 10 miles , 16 km
2021/03/04 21:53 KNEW 042153Z 29007KT 10SM CLR 18/08 A3010 RMK AO2 SLP186 T01830083
KP92 - Salt Point, Louisiana, USA
Distance from station: SW 347mi, 559km
Updated: Thu, 04-Mar-2021 3:59pm CST

 Wind from SSW
Wind: SSW 6 mph , 9 km/h
Temperature: 61°F , 16°C
Dew Point: 46°F , 8°C
Humidity: 59%
Barometer: 30.08 inHg , 1018.6 hPa
2021/03/04 21:59 KP92 042159Z AUTO 21005KT 16/08 A3008 RMK AO1 SLP185 T01610083